Time;durP1;ratioP1;P1;durP2;ratioP2;P2;SDS_P1;SDS_P2;PMS_P1;PMS_P2;Temp;Humidity;BMP_temperature;BMP_pressure;BME280_temperature;BME280_humidity;BME280_pressure;Samples;Min_cycle;Max_cycle;Signal;HPM_P1;HPM_P2
2021/12/22 00:00:08;;;;;;;31.70;21.05;;;-0.50;99.90;;;;;;5094576;28;20258;-71
2021/12/22 00:02:36;;;;;;;32.50;21.48;;;-0.60;99.90;;;;;;5094620;28;20366;-72
2021/12/22 00:05:03;;;;;;;34.20;20.95;;;-0.60;99.90;;;;;;5094604;28;20237;-72
2021/12/22 00:07:30;;;;;;;31.90;20.35;;;-0.60;99.90;;;;;;5094589;28;20576;-71
2021/12/22 00:09:58;;;;;;;32.80;21.15;;;-0.60;99.90;;;;;;5094548;28;20209;-72
2021/12/22 00:12:25;;;;;;;34.20;21.13;;;-0.60;99.90;;;;;;5094339;28;20198;-72
2021/12/22 00:14:52;;;;;;;33.42;21.67;;;-0.60;99.90;;;;;;5094145;28;20226;-72
2021/12/22 00:17:18;;;;;;;31.60;20.58;;;-0.60;99.90;;;;;;5094475;28;20206;-71
2021/12/22 00:19:45;;;;;;;30.23;19.75;;;-0.60;99.90;;;;;;5094455;28;20537;-72
2021/12/22 00:22:12;;;;;;;34.25;22.42;;;-0.60;99.90;;;;;;5094474;28;20202;-71
2021/12/22 00:24:40;;;;;;;32.22;21.08;;;-0.60;99.90;;;;;;5094039;28;20316;-72
2021/12/22 00:27:08;;;;;;;33.35;21.25;;;-0.60;99.90;;;;;;5094455;28;20202;-72
2021/12/22 00:29:35;;;;;;;33.35;21.30;;;-0.60;99.90;;;;;;5094296;28;20213;-72
2021/12/22 00:32:11;;;;;;;31.80;21.50;;;-0.60;99.90;;;;;;5094294;28;20212;-72
2021/12/22 00:34:46;;;;;;;28.63;20.40;;;-0.70;99.90;;;;;;5093970;28;20225;-72
2021/12/22 00:37:14;;;;;;;32.55;21.17;;;-0.70;99.90;;;;;;5094244;28;20205;-72
2021/12/22 00:39:41;;;;;;;35.22;21.70;;;-0.70;99.90;;;;;;5093188;28;20213;-72
2021/12/22 00:42:09;;;;;;;29.33;20.02;;;-0.80;99.90;;;;;;5094127;28;20198;-71
2021/12/22 00:44:36;;;;;;;31.55;20.50;;;-0.70;99.90;;;;;;5093978;28;20229;-71
2021/12/22 00:47:03;;;;;;;28.25;19.98;;;-0.70;99.90;;;;;;5094144;28;20297;-71
2021/12/22 00:49:30;;;;;;;30.88;19.85;;;-0.70;99.90;;;;;;5094065;28;20198;-71
2021/12/22 00:51:57;;;;;;;31.08;21.20;;;-0.80;99.90;;;;;;5094028;28;20574;-72
2021/12/22 00:54:24;;;;;;;37.35;21.80;;;-0.80;99.90;;;;;;5093511;28;20257;-71
2021/12/22 00:56:51;;;;;;;33.60;21.65;;;-0.80;99.90;;;;;;5093995;28;20297;-72
2021/12/22 00:59:19;;;;;;;31.92;21.20;;;-0.80;99.90;;;;;;5094007;28;20208;-71
2021/12/22 01:01:46;;;;;;;31.55;20.83;;;-0.80;99.90;;;;;;5093814;28;20229;-71
2021/12/22 01:04:13;;;;;;;35.15;22.75;;;-0.80;99.90;;;;;;5093762;28;20312;-71
2021/12/22 01:06:40;;;;;;;32.67;21.95;;;-0.80;99.90;;;;;;5093565;28;20316;-71
2021/12/22 01:09:07;;;;;;;29.65;20.75;;;-0.80;99.90;;;;;;5093756;28;20658;-71
2021/12/22 01:11:34;;;;;;;30.52;20.42;;;-0.70;99.90;;;;;;5093783;28;20202;-72
2021/12/22 01:14:02;;;;;;;29.27;19.67;;;-0.80;99.90;;;;;;5093627;28;20308;-71
2021/12/22 01:16:30;;;;;;;32.65;21.77;;;-0.90;99.90;;;;;;5093761;28;20208;-71
2021/12/22 01:19:02;;;;;;;30.48;20.30;;;-0.90;99.90;;;;;;5093931;28;20229;-72
2021/12/22 01:21:37;;;;;;;32.65;22.20;;;-0.90;99.90;;;;;;5093755;28;20226;-71
2021/12/22 01:24:14;;;;;;;32.45;21.98;;;-0.90;99.90;;;;;;5093766;28;20294;-71
2021/12/22 01:26:46;;;;;;;27.08;18.63;;;-0.80;99.90;;;;;;5093577;28;20201;-71
2021/12/22 01:29:14;;;;;;;32.42;19.48;;;-0.70;99.90;;;;;;5093618;28;20556;-71
2021/12/22 01:31:43;;;;;;;30.25;19.17;;;-0.80;99.90;;;;;;5093740;28;20601;-71
2021/12/22 01:34:10;;;;;;;31.30;20.95;;;-0.80;99.90;;;;;;5093478;28;20222;-71
2021/12/22 01:36:37;;;;;;;31.38;19.55;;;-0.90;99.90;;;;;;5093327;28;20230;-71
2021/12/22 01:39:05;;;;;;;34.33;22.55;;;-0.90;99.90;;;;;;5093167;28;20220;-71
2021/12/22 01:41:32;;;;;;;33.33;20.48;;;-0.90;99.90;;;;;;5093328;28;20229;-71
2021/12/22 01:43:59;;;;;;;31.65;20.80;;;-0.90;99.90;;;;;;5093373;28;20229;-71
2021/12/22 01:49:09;;;;;;;31.50;20.27;;;-0.80;99.90;;;;;;5093222;28;20246;-71
2021/12/22 01:49:41;;;;;;;32.15;20.30;;;-0.80;99.90;;;;;;5093090;28;20603;-72
2021/12/22 01:52:08;;;;;;;30.20;20.10;;;-0.80;99.90;;;;;;5096454;28;20277;-71
2021/12/22 01:54:40;;;;;;;34.33;22.35;;;-0.80;99.90;;;;;;5097093;28;20226;-71
2021/12/22 01:57:10;;;;;;;31.40;19.45;;;-0.80;99.90;;;;;;5097086;28;20202;-71
2021/12/22 01:59:38;;;;;;;33.03;20.60;;;-0.80;99.90;;;;;;5096930;28;20288;-71
2021/12/22 02:02:07;;;;;;;32.47;20.10;;;-0.90;99.90;;;;;;5097008;28;20232;-71
2021/12/22 02:04:35;;;;;;;30.17;20.08;;;-1.00;99.90;;;;;;5096536;28;20248;-72
2021/12/22 02:07:03;;;;;;;30.65;21.10;;;-1.00;99.90;;;;;;5097010;28;20565;-71
2021/12/22 02:09:47;;;;;;;35.30;20.50;;;-1.00;99.90;;;;;;5096929;28;20205;-71
2021/12/22 02:12:14;;;;;;;32.80;19.85;;;-1.00;99.90;;;;;;5096991;28;20652;-71
2021/12/22 02:14:42;;;;;;;31.42;20.23;;;-1.00;99.90;;;;;;5096766;28;20256;-72
2021/12/22 02:17:11;;;;;;;29.65;20.00;;;-1.00;99.90;;;;;;5096881;28;20571;-72
2021/12/22 02:19:40;;;;;;;38.22;21.75;;;-1.10;99.90;;;;;;5096572;28;20657;-72
2021/12/22 02:22:10;;;;;;;35.92;20.90;;;-1.10;99.90;;;;;;5096723;28;20317;-72
2021/12/22 02:24:37;;;;;;;35.85;22.90;;;-1.30;99.90;;;;;;5096487;28;20222;-71
2021/12/22 02:27:08;;;;;;;31.90;21.55;;;-1.20;99.90;;;;;;5096537;28;20255;-71
2021/12/22 02:29:37;;;;;;;32.70;21.02;;;-1.10;99.90;;;;;;5096399;28;20246;-71
2021/12/22 02:32:13;;;;;;;32.50;20.67;;;-1.10;99.90;;;;;;5096194;28;20198;-71
2021/12/22 02:34:44;;;;;;;32.80;21.40;;;-1.00;99.90;;;;;;5096239;28;20233;-71
2021/12/22 02:37:15;;;;;;;35.92;21.45;;;-1.00;99.90;;;;;;5096437;28;20294;-71
2021/12/22 02:39:51;;;;;;;31.80;19.85;;;-1.00;99.90;;;;;;5096099;28;20237;-71
2021/12/22 02:42:21;;;;;;;32.08;20.30;;;-0.90;99.90;;;;;;5096119;28;20754;-71
2021/12/22 02:44:48;;;;;;;29.95;20.85;;;-0.90;99.90;;;;;;5096102;28;20223;-71
2021/12/22 02:47:19;;;;;;;32.20;20.85;;;-0.80;99.90;;;;;;5096178;28;20294;-71
2021/12/22 02:49:48;;;;;;;32.13;20.00;;;-0.90;99.90;;;;;;5096085;28;20255;-71
2021/12/22 02:52:15;;;;;;;29.92;19.90;;;-0.90;99.90;;;;;;5096111;28;20339;-71
2021/12/22 02:54:47;;;;;;;35.15;21.52;;;-0.90;99.90;;;;;;5095459;28;20222;-72
2021/12/22 02:57:26;;;;;;;32.75;20.52;;;-0.90;99.90;;;;;;5096104;28;20209;-71
2021/12/22 03:00:21;;;;;;;34.50;21.60;;;-1.00;99.90;;;;;;5095949;28;20216;-71
2021/12/22 03:02:46;;;;;;;31.42;20.25;;;-1.00;99.90;;;;;;5094836;28;20714;-71
2021/12/22 03:05:14;;;;;;;34.15;20.55;;;-1.10;99.90;;;;;;5095544;28;20222;-71
2021/12/22 03:07:41;;;;;;;33.78;21.40;;;-1.30;99.90;;;;;;5095816;28;20210;-71
2021/12/22 03:10:12;;;;;;;36.35;21.17;;;-1.50;99.90;;;;;;5095565;28;20699;-71
2021/12/22 03:12:40;;;;;;;27.90;18.80;;;-1.40;99.90;;;;;;5095767;28;20542;-71
2021/12/22 03:15:10;;;;;;;31.25;20.10;;;-1.50;99.90;;;;;;5095217;28;20224;-71
2021/12/22 03:17:38;;;;;;;33.13;19.70;;;-1.50;99.90;;;;;;5095647;28;20206;-71
2021/12/22 03:20:08;;;;;;;31.42;19.75;;;-1.40;99.90;;;;;;5095638;28;20533;-72
2021/12/22 03:22:36;;;;;;;33.13;20.65;;;-1.30;99.90;;;;;;5095448;28;20238;-71
2021/12/22 03:25:13;;;;;;;31.52;19.92;;;-1.20;99.90;;;;;;5095098;28;20763;-72
2021/12/22 03:27:39;;;;;;;33.75;20.70;;;-1.10;99.90;;;;;;5095313;28;20201;-72
2021/12/22 03:30:08;;;;;;;32.45;21.55;;;-1.10;99.90;;;;;;5095363;28;20560;-71
2021/12/22 03:32:34;;;;;;;29.83;19.58;;;-1.00;99.90;;;;;;5095475;28;20571;-71
2021/12/22 03:35:02;;;;;;;30.75;20.17;;;-1.10;99.90;;;;;;5095189;28;20579;-71
2021/12/22 03:37:28;;;;;;;30.83;20.02;;;-1.20;99.90;;;;;;5095117;28;20229;-71
2021/12/22 03:39:57;;;;;;;30.20;18.27;;;-1.40;99.90;;;;;;5094863;28;20577;-71
2021/12/22 03:42:23;;;;;;;30.10;19.98;;;-1.40;99.90;;;;;;5095150;28;20228;-71
2021/12/22 03:44:50;;;;;;;33.03;20.25;;;-1.60;99.90;;;;;;5094743;28;20236;-71
2021/12/22 03:47:17;;;;;;;34.45;20.13;;;-1.80;99.90;;;;;;5095245;28;20198;-72
2021/12/22 03:49:44;;;;;;;39.95;21.83;;;-1.80;99.90;;;;;;5095107;28;20198;-71
2021/12/22 03:52:12;;;;;;;34.30;21.88;;;-1.70;99.90;;;;;;5095116;28;20571;-72
2021/12/22 03:54:38;;;;;;;31.27;20.73;;;-1.50;99.90;;;;;;5094453;28;20222;-71
2021/12/22 03:57:07;;;;;;;31.30;20.90;;;-1.40;99.90;;;;;;5094833;28;20206;-71
2021/12/22 03:59:34;;;;;;;36.28;20.70;;;-1.30;99.90;;;;;;5094642;28;20210;-71
2021/12/22 04:02:01;;;;;;;33.78;22.40;;;-1.30;99.90;;;;;;5094800;28;20241;-71
2021/12/22 04:04:27;;;;;;;39.97;23.50;;;-1.30;99.90;;;;;;5094463;28;20305;-71
2021/12/22 04:06:54;;;;;;;33.65;21.42;;;-1.30;99.90;;;;;;5094546;28;20292;-71
2021/12/22 04:09:27;;;;;;;35.47;22.55;;;-1.40;99.90;;;;;;5094606;28;20297;-72
2021/12/22 04:11:54;;;;;;;34.22;21.55;;;-1.30;99.90;;;;;;5094673;28;20198;-71
2021/12/22 04:14:23;;;;;;;33.25;21.58;;;-1.30;99.90;;;;;;5094515;28;20228;-72
2021/12/22 04:16:50;;;;;;;34.50;22.52;;;-1.30;99.90;;;;;;5094478;28;20206;-71
2021/12/22 04:19:16;;;;;;;39.80;21.50;;;-1.30;99.90;;;;;;5094420;28;20205;-71
2021/12/22 04:21:43;;;;;;;38.28;22.80;;;-1.40;99.90;;;;;;5094283;28;20233;-71
2021/12/22 04:24:10;;;;;;;32.00;22.08;;;-1.60;99.90;;;;;;5094195;28;20233;-71
2021/12/22 04:26:38;;;;;;;35.45;22.77;;;-1.60;99.90;;;;;;5094271;28;20292;-72
2021/12/22 04:29:05;;;;;;;35.88;20.73;;;-1.50;99.90;;;;;;5094075;28;20202;-71
2021/12/22 04:31:33;;;;;;;36.78;22.67;;;-1.50;99.90;;;;;;5094305;28;20201;-71
2021/12/22 04:34:03;;;;;;;33.45;21.42;;;-1.40;99.90;;;;;;5094310;28;20316;-71
2021/12/22 04:36:30;;;;;;;32.17;21.90;;;-1.40;99.90;;;;;;5093994;28;20202;-71
2021/12/22 04:38:59;;;;;;;34.92;22.17;;;-1.40;99.90;;;;;;5093924;28;20210;-72
2021/12/22 04:41:26;;;;;;;33.10;20.67;;;-1.60;99.90;;;;;;5094116;28;20218;-72
2021/12/22 04:43:53;;;;;;;35.38;20.88;;;-1.50;99.90;;;;;;5093982;28;20229;-72
2021/12/22 04:46:21;;;;;;;35.75;21.15;;;-1.60;99.90;;;;;;5094113;28;20249;-72
2021/12/22 04:48:49;;;;;;;34.35;20.67;;;-1.70;99.90;;;;;;5094146;28;20289;-71
2021/12/22 04:51:24;;;;;;;33.83;20.70;;;-1.70;99.90;;;;;;5094028;28;20195;-71
2021/12/22 04:53:56;;;;;;;35.72;21.17;;;-1.70;99.90;;;;;;5094052;28;20299;-71
2021/12/22 04:56:23;;;;;;;34.72;21.95;;;-1.70;99.90;;;;;;5094165;28;20206;-71
2021/12/22 04:58:50;;;;;;;32.00;20.65;;;-1.60;99.90;;;;;;5093934;28;20202;-71
2021/12/22 05:01:17;;;;;;;32.08;20.45;;;-1.50;99.90;;;;;;5093876;28;20222;-71
2021/12/22 05:03:44;;;;;;;36.28;21.70;;;-1.60;99.90;;;;;;5093758;28;20221;-71
2021/12/22 05:06:12;;;;;;;31.10;21.00;;;-1.50;99.90;;;;;;5093469;28;20212;-71
2021/12/22 05:08:39;;;;;;;33.85;21.38;;;-1.50;99.90;;;;;;5093853;28;20204;-72
2021/12/22 05:11:06;;;;;;;31.35;20.67;;;-1.50;99.90;;;;;;5093790;28;20209;-72
2021/12/22 05:13:35;;;;;;;32.03;19.73;;;-1.50;99.90;;;;;;5093795;28;20627;-71
2021/12/22 05:16:04;;;;;;;31.02;18.13;;;-1.50;99.90;;;;;;5093756;28;20604;-71
2021/12/22 05:18:49;;;;;;;33.45;19.90;;;-1.70;99.90;;;;;;5093599;28;20614;-71
2021/12/22 05:21:17;;;;;;;29.77;19.10;;;-1.90;99.90;;;;;;5093608;28;20247;-71
2021/12/22 05:23:44;;;;;;;31.52;19.25;;;-2.10;99.90;;;;;;5093574;28;20221;-72
2021/12/22 05:26:11;;;;;;;34.40;19.20;;;-2.00;99.90;;;;;;5095009;28;20202;-71
2021/12/22 05:28:38;;;;;;;38.13;21.15;;;-2.20;99.90;;;;;;5097758;28;20292;-71
2021/12/22 05:31:05;;;;;;;32.35;19.55;;;-2.10;99.90;;;;;;5097748;28;20210;-71
2021/12/22 05:33:31;;;;;;;34.00;20.42;;;-2.10;99.90;;;;;;5097335;28;20293;-71
2021/12/22 05:35:58;;;;;;;33.10;19.40;;;-1.90;99.90;;;;;;5097490;28;20205;-72
2021/12/22 05:38:26;;;;;;;33.42;20.27;;;-1.90;99.90;;;;;;5097468;28;20216;-73
2021/12/22 05:40:53;;;;;;;36.42;22.42;;;-1.80;99.90;;;;;;5097928;28;20202;-72
2021/12/22 05:43:20;;;;;;;42.03;23.92;;;-1.70;99.90;;;;;;5097289;28;20233;-71
2021/12/22 05:45:47;;;;;;;34.65;20.83;;;-1.70;99.90;;;;;;5097139;28;20236;-72
2021/12/22 05:48:14;;;;;;;32.97;20.98;;;-1.60;99.90;;;;;;5097203;28;20743;-71
2021/12/22 05:50:44;;;;;;;39.33;21.70;;;-1.60;99.90;;;;;;5097365;28;20201;-72
2021/12/22 05:53:10;;;;;;;35.53;20.48;;;-1.50;99.90;;;;;;5097295;28;20213;-71
2021/12/22 05:55:39;;;;;;;32.92;18.95;;;-1.60;99.90;;;;;;5097216;28;20581;-72
2021/12/22 05:58:05;;;;;;;36.83;20.38;;;-1.80;99.90;;;;;;5097315;28;20198;-72
2021/12/22 06:00:32;;;;;;;33.47;19.75;;;-1.90;99.90;;;;;;5097094;28;20208;-71
2021/12/22 06:02:59;;;;;;;30.80;19.48;;;-2.10;99.90;;;;;;5097076;28;20228;-72
2021/12/22 06:05:26;;;;;;;34.13;19.60;;;-2.10;99.90;;;;;;5096535;28;20308;-72
2021/12/22 06:07:53;;;;;;;34.00;19.75;;;-1.90;99.90;;;;;;5097058;28;20209;-72
2021/12/22 06:10:20;;;;;;;35.05;19.70;;;-1.80;99.90;;;;;;5096853;28;20202;-72
2021/12/22 06:12:48;;;;;;;34.92;20.88;;;-1.80;99.90;;;;;;5096623;28;20198;-72
2021/12/22 06:15:15;;;;;;;33.13;19.92;;;-1.70;99.90;;;;;;5096789;28;20232;-72
2021/12/22 06:17:41;;;;;;;35.00;20.77;;;-1.70;99.90;;;;;;5096768;28;20204;-72
2021/12/22 06:20:09;;;;;;;31.95;21.30;;;-1.70;99.90;;;;;;5096736;28;20293;-71
2021/12/22 06:22:36;;;;;;;33.15;20.65;;;-1.70;99.90;;;;;;5096593;28;20305;-71
2021/12/22 06:25:04;;;;;;;32.70;20.70;;;-1.60;99.90;;;;;;5096291;28;20271;-71
2021/12/22 06:27:31;;;;;;;31.60;19.40;;;-1.80;99.90;;;;;;5096300;28;20672;-71
2021/12/22 06:29:59;;;;;;;35.45;19.27;;;-1.90;99.90;;;;;;5096642;28;20202;-72
2021/12/22 06:32:26;;;;;;;34.72;20.40;;;-2.00;99.90;;;;;;5096391;28;20279;-71
2021/12/22 06:34:53;;;;;;;33.15;18.70;;;-2.00;99.90;;;;;;5096040;28;20312;-71
2021/12/22 06:37:20;;;;;;;31.17;20.05;;;-2.00;99.90;;;;;;5095114;28;20205;-72
2021/12/22 06:39:46;;;;;;;32.15;20.50;;;-2.00;99.90;;;;;;5096125;28;20210;-71
2021/12/22 06:42:13;;;;;;;33.50;20.23;;;-2.00;99.90;;;;;;5096059;28;20218;-71
2021/12/22 06:44:40;;;;;;;33.75;20.15;;;-1.90;99.90;;;;;;5096121;28;20218;-71
2021/12/22 06:47:10;;;;;;;33.47;20.30;;;-1.90;99.90;;;;;;5096226;28;20208;-72
2021/12/22 06:49:37;;;;;;;30.75;18.85;;;-1.90;99.90;;;;;;5096290;28;20208;-71
2021/12/22 06:52:05;;;;;;;34.17;19.70;;;-1.80;99.90;;;;;;5096102;28;20668;-71
2021/12/22 06:54:31;;;;;;;33.05;19.08;;;-1.80;99.90;;;;;;5095595;28;20313;-72
2021/12/22 06:56:58;;;;;;;32.58;19.60;;;-1.80;99.90;;;;;;5096084;28;20237;-72
2021/12/22 06:59:25;;;;;;;32.83;17.98;;;-2.00;99.90;;;;;;5095892;28;20203;-72
2021/12/22 07:01:52;;;;;;;29.33;18.77;;;-2.00;99.90;;;;;;5096001;28;20327;-72
2021/12/22 07:04:20;;;;;;;30.58;18.00;;;-2.00;99.90;;;;;;5096038;28;20221;-72
2021/12/22 07:06:47;;;;;;;35.88;19.30;;;-2.00;99.90;;;;;;5095803;28;20288;-71
2021/12/22 07:09:14;;;;;;;32.47;19.13;;;-1.90;99.90;;;;;;5095926;28;20205;-71
2021/12/22 07:11:41;;;;;;;30.70;18.35;;;-1.90;99.90;;;;;;5095767;28;20696;-71
2021/12/22 07:14:09;;;;;;;29.95;18.98;;;-1.90;99.90;;;;;;5095432;28;20765;-72
2021/12/22 07:16:36;;;;;;;32.90;17.95;;;-1.80;99.90;;;;;;5095510;28;20305;-72
2021/12/22 07:19:03;;;;;;;30.90;18.45;;;-1.70;99.90;;;;;;5095606;28;20208;-72
2021/12/22 07:21:31;;;;;;;39.20;19.73;;;-1.80;99.90;;;;;;5095469;28;20252;-72
2021/12/22 07:23:58;;;;;;;30.83;18.80;;;-2.10;99.90;;;;;;5095111;28;20707;-71
2021/12/22 07:26:25;;;;;;;34.65;19.95;;;-2.20;99.90;;;;;;5095337;28;20292;-71
2021/12/22 07:28:52;;;;;;;32.28;18.90;;;-2.10;99.90;;;;;;5095351;28;20206;-71
2021/12/22 07:31:19;;;;;;;35.47;20.83;;;-2.10;99.90;;;;;;5095385;28;20289;-71
2021/12/22 07:33:49;;;;;;;34.42;20.40;;;-2.10;99.90;;;;;;5095326;28;20214;-71
2021/12/22 07:36:16;;;;;;;32.15;20.25;;;-2.00;99.90;;;;;;5095430;28;20289;-72
2021/12/22 07:38:56;;;;;;;29.02;19.33;;;-1.90;99.90;;;;;;5094857;28;20293;-72
2021/12/22 07:41:23;;;;;;;30.08;20.17;;;-1.80;99.90;;;;;;5095245;28;20206;-71
2021/12/22 07:43:50;;;;;;;34.22;20.25;;;-1.80;99.90;;;;;;5094959;28;20763;-71
2021/12/22 07:46:17;;;;;;;35.45;21.83;;;-1.70;99.90;;;;;;5094652;28;20684;-71
2021/12/22 07:48:44;;;;;;;37.53;21.98;;;-1.70;99.90;;;;;;5094698;28;20564;-72
2021/12/22 07:51:11;;;;;;;35.50;21.08;;;-1.60;99.90;;;;;;5094994;28;20209;-72
2021/12/22 07:53:37;;;;;;;35.30;21.23;;;-1.50;99.90;;;;;;5094763;28;20224;-72
2021/12/22 07:56:06;;;;;;;34.90;22.27;;;-1.50;99.90;;;;;;5094575;28;20212;-71
2021/12/22 07:58:33;;;;;;;34.65;22.77;;;-1.50;99.90;;;;;;5094851;28;20228;-71
2021/12/22 08:01:00;;;;;;;36.03;20.48;;;-1.70;99.90;;;;;;5094761;28;20564;-71
2021/12/22 08:03:28;;;;;;;37.22;22.38;;;-1.70;99.90;;;;;;5094692;28;20222;-71
2021/12/22 08:05:55;;;;;;;34.90;20.75;;;-1.60;99.90;;;;;;5094323;28;20292;-72
2021/12/22 08:08:21;;;;;;;33.38;20.25;;;-1.50;99.90;;;;;;5094500;28;20206;-71
2021/12/22 08:10:48;;;;;;;33.15;19.85;;;-1.60;99.90;;;;;;5094625;28;20230;-71
2021/12/22 08:13:17;;;;;;;35.05;20.17;;;-1.70;99.90;;;;;;5094523;28;20293;-72
2021/12/22 08:15:44;;;;;;;32.83;20.00;;;-1.60;99.90;;;;;;5094049;28;20309;-71
2021/12/22 08:18:11;;;;;;;37.22;21.05;;;-1.60;99.90;;;;;;5094449;28;20209;-71
2021/12/22 08:20:38;;;;;;;35.33;21.13;;;-1.80;99.90;;;;;;5094464;28;20202;-71
2021/12/22 08:23:05;;;;;;;39.28;22.85;;;-1.80;99.90;;;;;;5094298;28;20217;-71
2021/12/22 08:25:32;;;;;;;36.97;20.85;;;-1.80;99.90;;;;;;5093827;28;20226;-71
2021/12/22 08:27:58;;;;;;;39.22;22.45;;;-1.80;99.90;;;;;;5094220;28;20208;-71
2021/12/22 08:30:27;;;;;;;38.08;21.23;;;-1.70;99.90;;;;;;5094298;28;20293;-71
2021/12/22 08:32:54;;;;;;;34.40;21.80;;;-1.70;99.90;;;;;;5094255;28;20201;-71
2021/12/22 08:35:25;;;;;;;35.47;21.05;;;-1.70;99.90;;;;;;5094001;28;20226;-71
2021/12/22 08:40:37;;;;;;;40.90;23.23;;;-1.80;99.90;;;;;;5057616;28;20214;-71
2021/12/22 08:43:04;;;;;;;37.55;21.45;;;-1.80;99.90;;;;;;5052451;28;20705;-71
2021/12/22 08:45:32;;;;;;;40.42;22.48;;;-1.70;99.90;;;;;;5052335;28;20230;-71
2021/12/22 08:47:59;;;;;;;40.42;22.70;;;-1.70;99.90;;;;;;5052592;28;20577;-71
2021/12/22 08:50:27;;;;;;;36.83;22.00;;;-1.60;99.90;;;;;;5052700;28;20203;-71
2021/12/22 08:52:55;;;;;;;38.63;23.55;;;-1.50;99.90;;;;;;5052550;28;20575;-71
2021/12/22 08:55:22;;;;;;;36.65;24.00;;;-1.40;99.90;;;;;;5052198;28;20318;-70
2021/12/22 08:57:49;;;;;;;41.28;23.27;;;-1.40;99.90;;;;;;5052624;28;20208;-70
2021/12/22 09:00:16;;;;;;;34.55;22.80;;;-1.20;99.90;;;;;;5051826;28;20673;-72
2021/12/22 09:02:45;;;;;;;45.13;23.67;;;-1.20;99.90;;;;;;5053373;28;20693;-71
2021/12/22 09:05:13;;;;;;;40.35;23.52;;;-1.40;99.90;;;;;;5053152;28;20227;-71
2021/12/22 09:07:39;;;;;;;39.17;24.30;;;-1.50;99.90;;;;;;5053450;28;20208;-71
2021/12/22 09:10:07;;;;;;;37.67;23.45;;;-1.60;99.90;;;;;;5053692;28;20213;-72
2021/12/22 09:12:34;;;;;;;39.03;23.73;;;-1.70;99.90;;;;;;5053484;28;20606;-71
2021/12/22 09:15:00;;;;;;;47.33;25.60;;;-1.70;99.90;;;;;;5053408;28;20223;-71
2021/12/22 09:17:27;;;;;;;42.28;26.25;;;-1.80;99.90;;;;;;5053480;28;20294;-70
2021/12/22 09:19:56;;;;;;;44.85;27.13;;;-1.90;99.90;;;;;;5053356;28;20208;-71
2021/12/22 09:22:23;;;;;;;41.00;27.52;;;-1.90;99.90;;;;;;5053296;28;20213;-71
2021/12/22 09:24:51;;;;;;;46.45;27.17;;;-2.00;99.90;;;;;;5053243;28;20315;-71
2021/12/22 09:27:18;;;;;;;43.47;26.05;;;-2.20;99.90;;;;;;5053193;28;20199;-71
2021/12/22 09:29:45;;;;;;;47.38;25.15;;;-2.10;99.90;;;;;;5053185;28;20203;-71
2021/12/22 09:32:15;;;;;;;46.30;27.60;;;-1.90;99.90;;;;;;5053275;28;20210;-71
2021/12/22 09:34:42;;;;;;;46.78;26.17;;;-1.80;99.90;;;;;;5052962;28;20277;-71
2021/12/22 09:37:10;;;;;;;41.42;27.13;;;-1.70;99.90;;;;;;5053284;28;20199;-71
2021/12/22 09:39:38;;;;;;;43.65;24.98;;;-1.70;99.90;;;;;;5053069;28;20217;-71
2021/12/22 09:42:06;;;;;;;40.03;24.65;;;-1.70;99.90;;;;;;5053184;28;20203;-71
2021/12/22 09:44:37;;;;;;;42.45;26.85;;;-1.70;99.90;;;;;;5052759;28;20241;-71
2021/12/22 09:47:05;;;;;;;43.67;26.33;;;-1.60;99.90;;;;;;5053163;28;20204;-71
2021/12/22 09:49:59;;;;;;;45.55;26.35;;;-1.50;99.90;;;;;;5053175;28;20566;-71
2021/12/22 09:52:27;;;;;;;47.33;26.40;;;-1.40;99.90;;;;;;5053150;28;20199;-71
2021/12/22 09:54:56;;;;;;;48.30;27.85;;;-1.40;99.90;;;;;;5052740;28;20219;-71
2021/12/22 09:57:24;;;;;;;44.75;26.25;;;-1.60;99.90;;;;;;5053042;28;20210;-71
2021/12/22 09:59:53;;;;;;;39.40;25.00;;;-1.50;99.90;;;;;;5053133;28;20570;-71
2021/12/22 10:02:22;;;;;;;39.38;25.00;;;-1.50;99.90;;;;;;5053174;28;20204;-71
2021/12/22 10:04:50;;;;;;;41.28;25.48;;;-1.50;99.90;;;;;;5052971;28;20235;-71
2021/12/22 10:07:20;;;;;;;41.40;25.30;;;-1.40;99.90;;;;;;5052989;28;20200;-71
2021/12/22 10:09:49;;;;;;;43.28;25.17;;;-1.40;99.90;;;;;;5053150;28;20609;-71
2021/12/22 10:12:19;;;;;;;42.67;23.42;;;-1.30;99.90;;;;;;5054499;28;20688;-71
2021/12/22 10:14:54;;;;;;;42.38;25.05;;;-1.20;99.90;;;;;;5056575;28;20226;-70
2021/12/22 10:17:33;;;;;;;35.33;21.58;;;-1.20;99.90;;;;;;5056696;28;20567;-71
2021/12/22 10:20:01;;;;;;;32.60;20.35;;;-1.10;99.90;;;;;;5056713;28;20203;-71
2021/12/22 10:22:32;;;;;;;32.20;18.60;;;-0.90;99.90;;;;;;5056544;28;20199;-71
2021/12/22 10:25:10;;;;;;;32.25;18.38;;;-0.80;99.90;;;;;;5055965;28;20231;-71
2021/12/22 10:27:39;;;;;;;36.47;18.33;;;-0.80;99.90;;;;;;5056455;28;20203;-71
2021/12/22 10:30:29;;;;;;;32.67;19.27;;;-0.70;99.90;;;;;;5056389;28;20657;-71
2021/12/22 10:33:12;;;;;;;33.25;17.65;;;-0.60;99.90;;;;;;5056104;28;20208;-71
2021/12/22 10:35:39;;;;;;;36.10;19.63;;;-0.40;99.90;;;;;;5056213;28;20258;-70
2021/12/22 10:38:08;;;;;;;31.48;19.10;;;-0.20;99.90;;;;;;5056287;28;20223;-71
2021/12/22 10:40:38;;;;;;;37.15;22.45;;;-0.10;99.90;;;;;;5056104;28;20211;-70
2021/12/22 10:43:06;;;;;;;36.80;22.00;;;-0.20;99.90;;;;;;5056131;28;20224;-70
2021/12/22 10:45:35;;;;;;;39.50;21.40;;;-0.20;99.90;;;;;;5055531;28;20226;-70
2021/12/22 10:50:53;;;;;;;38.08;20.38;;;-0.20;99.90;;;;;;5055987;28;20214;-70
2021/12/22 10:53:20;;;;;;;35.10;18.92;;;-0.20;99.90;;;;;;5055867;28;20206;-70
2021/12/22 10:55:50;;;;;;;29.08;19.60;;;-0.30;99.90;;;;;;5055290;28;20705;-70
2021/12/22 10:58:20;;;;;;;33.55;17.95;;;-0.20;99.90;;;;;;5055944;28;20234;-70
2021/12/22 11:01:04;;;;;;;31.38;17.95;;;-0.10;99.90;;;;;;5055829;28;20290;-70
2021/12/22 11:03:39;;;;;;;30.15;18.02;;;-0.10;99.90;;;;;;5055635;28;20220;-70
2021/12/22 11:06:15;;;;;;;31.63;18.88;;;0.00;99.90;;;;;;5055409;28;20187;-70
2021/12/22 11:08:52;;;;;;;32.63;19.98;;;0.00;99.90;;;;;;5055821;28;20630;-70
2021/12/22 11:11:20;;;;;;;30.73;18.27;;;0.00;99.90;;;;;;5055634;28;20539;-70
2021/12/22 11:14:02;;;;;;;31.95;18.83;;;0.00;99.90;;;;;;5055424;28;20314;-70
2021/12/22 11:16:29;;;;;;;33.83;19.90;;;0.10;99.90;;;;;;5055440;28;20214;-70
2021/12/22 11:19:08;;;;;;;31.13;19.20;;;0.10;99.90;;;;;;5055504;28;20208;-70
2021/12/22 11:21:36;;;;;;;32.53;20.50;;;0.00;99.90;;;;;;5055549;28;20561;-70
2021/12/22 11:24:03;;;;;;;35.72;22.05;;;0.00;99.90;;;;;;5054911;28;20547;-71
2021/12/22 11:26:32;;;;;;;35.75;21.15;;;0.00;99.90;;;;;;5055228;28;20203;-70
2021/12/22 11:28:59;;;;;;;35.17;19.95;;;0.10;99.90;;;;;;5055380;28;20203;-70
2021/12/22 11:31:27;;;;;;;28.63;19.00;;;0.20;99.90;;;;;;5055216;28;20298;-71
2021/12/22 11:33:55;;;;;;;28.88;17.80;;;0.30;99.90;;;;;;5055323;28;20219;-70
2021/12/22 11:36:21;;;;;;;36.03;19.92;;;0.30;99.90;;;;;;5054965;28;20200;-70
2021/12/22 11:38:49;;;;;;;35.05;20.17;;;0.50;99.90;;;;;;5054896;28;20298;-71
2021/12/22 11:41:19;;;;;;;34.05;20.40;;;0.60;99.90;;;;;;5055014;28;20207;-70
2021/12/22 11:43:48;;;;;;;35.67;20.63;;;0.50;99.90;;;;;;5054885;28;20242;-70
2021/12/22 11:46:16;;;;;;;31.48;21.00;;;0.50;99.90;;;;;;5054754;28;20209;-70
2021/12/22 11:48:43;;;;;;;35.05;20.95;;;0.60;99.90;;;;;;5054734;28;20208;-70
2021/12/22 11:51:25;;;;;;;33.00;20.67;;;0.60;99.90;;;;;;5054770;28;20199;-70
2021/12/22 11:53:54;;;;;;;37.53;22.17;;;0.60;99.90;;;;;;5054656;28;20302;-70
2021/12/22 11:56:39;;;;;;;33.35;21.80;;;0.60;99.90;;;;;;5054280;28;20210;-70
2021/12/22 11:59:24;;;;;;;33.13;20.80;;;0.60;99.90;;;;;;5054722;28;20569;-70
2021/12/22 12:02:25;;;;;;;30.90;19.83;;;0.50;99.90;;;;;;5054518;28;20203;-70
2021/12/22 12:04:54;;;;;;;32.85;18.60;;;0.70;99.90;;;;;;5054129;28;20603;-70
2021/12/22 12:07:44;;;;;;;36.88;21.00;;;0.80;99.90;;;;;;5054427;28;20625;-70
2021/12/22 12:10:44;;;;;;;31.90;19.90;;;0.80;99.90;;;;;;5054482;28;20214;-70
2021/12/22 12:13:21;;;;;;;35.10;20.75;;;0.90;99.90;;;;;;5054430;28;20210;-70
2021/12/22 12:22:27;;;;;;;31.00;19.02;;;0.70;99.90;;;;;;4993080;28;20265;-70
2021/12/22 12:25:12;;;;;;;33.53;20.05;;;0.70;99.90;;;;;;5054132;28;20258;-70
2021/12/22 12:27:51;;;;;;;31.75;19.33;;;0.70;99.90;;;;;;5054309;28;20200;-70
2021/12/22 12:30:45;;;;;;;29.45;18.42;;;0.70;99.90;;;;;;5054253;28;20580;-70
2021/12/22 12:33:26;;;;;;;33.00;20.40;;;0.70;99.90;;;;;;5054255;28;20298;-70
2021/12/22 12:36:04;;;;;;;30.00;18.77;;;0.80;99.90;;;;;;5052936;28;20263;-70
2021/12/22 12:38:44;;;;;;;29.92;17.70;;;0.90;99.90;;;;;;5053922;28;20204;-71
2021/12/22 12:41:22;;;;;;;31.88;18.85;;;1.00;99.90;;;;;;5054000;28;20565;-70
2021/12/22 12:44:28;;;;;;;33.70;19.27;;;1.10;99.90;;;;;;5053813;28;20249;-70
2021/12/22 12:46:54;;;;;;;27.77;17.42;;;1.20;99.90;;;;;;5053890;28;20265;-70
2021/12/22 12:49:39;;;;;;;31.48;18.70;;;1.30;99.90;;;;;;5053777;28;20287;-70
2021/12/22 12:52:23;;;;;;;30.73;18.83;;;1.50;99.90;;;;;;5052102;28;20207;-70